createdAt,value
2023-04-04T00:01:14.157Z,5.47
2023-04-04T00:03:43.974Z,6.03
2023-04-04T00:06:13.215Z,5.40
2023-04-04T00:08:42.600Z,13.73
2023-04-04T00:11:13.894Z,9.77
2023-04-04T00:13:43.757Z,7.40
2023-04-04T00:16:13.587Z,4.05
2023-04-04T00:18:44.131Z,6.97
2023-04-04T00:21:13.957Z,5.72
2023-04-04T00:26:13.542Z,5.38
2023-04-04T00:28:43.265Z,6.43
2023-04-04T00:31:12.483Z,4.65
2023-04-04T00:33:41.926Z,4.00
2023-04-04T00:36:11.667Z,3.03
2023-04-04T00:38:41.186Z,5.95
2023-04-04T00:41:10.290Z,8.27
2023-04-04T00:43:41.392Z,5.07
2023-04-04T00:46:15.122Z,6.07
2023-04-04T00:48:44.877Z,3.72
2023-04-04T00:51:14.009Z,6.30
2023-04-04T00:53:48.035Z,3.67
2023-04-04T00:56:17.739Z,4.25
2023-04-04T00:58:48.690Z,3.65
2023-04-04T01:01:19.387Z,3.33
2023-04-04T01:03:49.091Z,7.30
2023-04-04T01:06:18.295Z,3.05
2023-04-04T01:08:49.705Z,3.30
2023-04-04T01:11:19.105Z,6.05
2023-04-04T01:13:50.135Z,5.55
2023-04-04T01:16:21.627Z,5.97
2023-04-04T01:18:52.208Z,7.80
2023-04-04T01:21:22.796Z,7.20
2023-04-04T01:24:01.298Z,3.80
2023-04-04T01:26:58.181Z,2.53
2023-04-04T01:29:27.785Z,5.43
2023-04-04T01:32:02.038Z,2.78
2023-04-04T01:34:36.182Z,5.90
2023-04-04T01:37:12.545Z,3.65
2023-04-04T01:39:45.998Z,3.00
2023-04-04T01:42:20.045Z,3.55
2023-04-04T01:44:57.777Z,3.60
2023-04-04T01:47:40.244Z,6.47
2023-04-04T01:50:12.604Z,6.28
2023-04-04T01:52:42.192Z,4.47
2023-04-04T01:55:12.594Z,4.85
2023-04-04T01:57:43.245Z,3.58
2023-04-04T02:00:15.862Z,2.92
2023-04-04T02:02:47.317Z,5.05
2023-04-04T02:05:17.943Z,7.80
2023-04-04T02:10:26.769Z,3.13
2023-04-04T02:12:58.137Z,4.78
2023-04-04T02:15:27.909Z,3.38
2023-04-04T02:17:58.866Z,3.70
2023-04-04T02:20:30.506Z,3.50
2023-04-04T02:22:59.713Z,3.10
2023-04-04T02:25:29.087Z,4.70
2023-04-04T02:27:59.686Z,3.75
2023-04-04T02:31:20.520Z,2.90
2023-04-04T02:33:50.120Z,2.28
2023-04-04T02:36:21.553Z,4.50
2023-04-04T02:38:53.342Z,3.03
2023-04-04T02:41:27.818Z,3.50
2023-04-04T02:44:01.244Z,4.45
2023-04-04T02:46:30.741Z,4.72
2023-04-04T02:49:05.003Z,6.97
2023-04-04T02:51:36.847Z,7.13
2023-04-04T02:54:06.404Z,5.95
2023-04-04T02:56:42.430Z,5.35
2023-04-04T02:59:13.037Z,7.75
2023-04-04T03:01:42.909Z,3.33
2023-04-04T03:04:12.785Z,5.55
2023-04-04T03:06:44.227Z,6.00
2023-04-04T03:09:13.902Z,3.67
2023-04-04T03:11:43.236Z,3.42
2023-04-04T03:14:13.915Z,2.65
2023-04-04T03:16:43.754Z,6.32
2023-04-04T03:19:13.044Z,7.65
2023-04-04T03:21:42.517Z,3.85
2023-04-04T03:24:12.660Z,9.18
2023-04-04T03:26:42.437Z,3.80
2023-04-04T03:29:15.348Z,3.55
2023-04-04T03:31:46.626Z,4.95
2023-04-04T03:34:16.091Z,3.97
2023-04-04T03:36:46.736Z,5.25
2023-04-04T03:39:16.106Z,5.90
2023-04-04T03:41:45.749Z,6.65
2023-04-04T03:44:16.264Z,5.95
2023-04-04T03:46:45.994Z,7.05
2023-04-04T03:49:16.160Z,5.05
2023-04-04T03:51:46.029Z,5.63
2023-04-04T03:54:15.343Z,6.13
2023-04-04T03:56:44.918Z,4.28
2023-04-04T03:59:15.599Z,9.20
2023-04-04T04:01:45.634Z,4.63
2023-04-04T04:04:15.007Z,3.20
2023-04-04T04:06:45.042Z,5.65
2023-04-04T04:09:16.521Z,4.30
2023-04-04T04:11:46.016Z,6.15
2023-04-04T04:14:16.628Z,6.80
2023-04-04T04:16:46.302Z,3.58
2023-04-04T04:19:19.630Z,3.38
2023-04-04T04:21:49.875Z,2.60
2023-04-04T04:26:49.026Z,4.50
2023-04-04T04:29:20.290Z,5.43
2023-04-04T04:31:50.115Z,2.17
2023-04-04T04:34:19.327Z,6.13
2023-04-04T04:36:50.100Z,3.20
2023-04-04T04:39:24.948Z,4.60
2023-04-04T04:42:11.987Z,5.03
2023-04-04T04:44:50.961Z,3.70
2023-04-04T04:47:20.787Z,9.48
2023-04-04T04:49:50.818Z,8.90
2023-04-04T04:52:25.490Z,5.50
2023-04-04T04:54:56.075Z,2.42
2023-04-04T04:57:27.463Z,5.13
2023-04-04T04:59:59.014Z,5.95
2023-04-04T05:02:29.969Z,2.10
2023-04-04T05:04:59.805Z,7.32
2023-04-04T05:07:30.534Z,6.38
2023-04-04T05:09:59.697Z,6.38
2023-04-04T05:12:29.446Z,6.07
2023-04-04T05:15:00.187Z,6.90
2023-04-04T05:17:29.854Z,4.43
2023-04-04T05:20:08.233Z,6.25
2023-04-04T05:22:43.442Z,7.72
2023-04-04T05:25:13.731Z,3.55
2023-04-04T05:27:49.609Z,7.50
2023-04-04T05:30:23.523Z,4.75
2023-04-04T05:33:23.366Z,5.13
2023-04-04T05:36:05.630Z,7.68
2023-04-04T05:38:39.225Z,4.22
2023-04-04T05:41:09.751Z,8.60
2023-04-04T05:43:39.653Z,5.55
2023-04-04T05:46:15.024Z,6.90
2023-04-04T05:48:50.260Z,8.35
2023-04-04T05:51:19.742Z,2.97
2023-04-04T05:53:59.195Z,5.18
2023-04-04T05:56:34.055Z,5.70
2023-04-04T05:59:06.060Z,5.30
2023-04-04T06:01:42.120Z,7.38
2023-04-04T06:04:15.644Z,5.82
2023-04-04T06:06:46.702Z,7.13
2023-04-04T06:09:16.222Z,8.13
2023-04-04T06:11:45.546Z,11.50
2023-04-04T06:14:15.808Z,6.78
2023-04-04T06:16:48.783Z,5.10
2023-04-04T06:19:21.454Z,13.15
2023-04-04T06:21:51.560Z,3.80
2023-04-04T06:24:21.038Z,9.20
2023-04-04T06:26:52.109Z,4.97
2023-04-04T06:29:26.194Z,6.78
2023-04-04T06:31:59.562Z,7.30
2023-04-04T06:34:38.525Z,5.63
2023-04-04T06:39:43.772Z,3.63
2023-04-04T06:42:22.174Z,3.65
2023-04-04T06:44:53.721Z,4.55
2023-04-04T06:47:24.343Z,6.93
2023-04-04T06:49:54.724Z,7.20
2023-04-04T06:52:24.619Z,5.07
2023-04-04T06:54:54.361Z,5.05
2023-04-04T06:57:23.567Z,6.97
2023-04-04T06:59:52.913Z,5.18
2023-04-04T07:02:23.705Z,5.95
2023-04-04T07:04:53.405Z,5.85
2023-04-04T07:07:22.583Z,5.38
2023-04-04T07:09:52.027Z,4.53
2023-04-04T07:12:21.282Z,12.60
2023-04-04T07:14:50.630Z,6.25
2023-04-04T07:17:24.782Z,3.13
2023-04-04T07:19:56.343Z,5.60
2023-04-04T07:22:25.752Z,3.00
2023-04-04T07:24:55.312Z,8.68
2023-04-04T07:27:24.493Z,4.70
2023-04-04T07:29:54.319Z,4.32
2023-04-04T07:32:24.609Z,5.07
2023-04-04T07:34:56.017Z,9.00
2023-04-04T07:37:26.646Z,3.95
2023-04-04T07:39:56.215Z,5.55
2023-04-04T07:42:25.472Z,3.95
2023-04-04T07:44:55.177Z,6.07
2023-04-04T07:47:24.416Z,5.93
2023-04-04T07:49:55.438Z,3.75
2023-04-04T07:52:25.869Z,3.97
2023-04-04T07:57:24.672Z,4.55
2023-04-04T07:59:54.318Z,6.93
2023-04-04T08:02:23.444Z,6.18
2023-04-04T08:04:53.258Z,5.57
2023-04-04T08:07:24.035Z,8.50
2023-04-04T08:09:53.601Z,5.88
2023-04-04T08:12:22.732Z,7.15
2023-04-04T08:14:52.947Z,6.85
2023-04-04T08:19:51.475Z,18.50
2023-04-04T08:22:22.327Z,2.30
2023-04-04T08:24:52.310Z,6.65
2023-04-04T08:27:21.546Z,2.60
2023-04-04T08:29:50.974Z,4.47
2023-04-04T08:32:20.270Z,2.95
2023-04-04T08:34:49.970Z,4.50
2023-04-04T08:37:19.359Z,4.20
2023-04-04T08:39:50.353Z,2.83
2023-04-04T08:42:21.731Z,6.68
2023-04-04T08:44:55.355Z,5.40
2023-04-04T08:47:28.388Z,5.53
2023-04-04T08:50:01.793Z,2.85
2023-04-04T08:52:35.782Z,2.85
2023-04-04T08:55:09.997Z,1.67
2023-04-04T08:57:39.280Z,6.10
2023-04-04T09:00:10.425Z,4.32
2023-04-04T09:02:47.720Z,4.15
2023-04-04T09:05:17.741Z,4.55
2023-04-04T09:07:47.632Z,3.50
2023-04-04T09:10:18.808Z,8.00
2023-04-04T09:12:49.540Z,4.93
2023-04-04T09:15:19.246Z,7.75
2023-04-04T09:17:49.034Z,5.47
2023-04-04T09:20:40.788Z,7.40
2023-04-04T09:23:12.210Z,4.43
2023-04-04T09:28:22.330Z,6.68
2023-04-04T09:30:53.236Z,2.10
2023-04-04T09:33:25.089Z,4.78
2023-04-04T09:35:59.265Z,6.20
2023-04-04T09:38:29.988Z,3.58
2023-04-04T09:41:01.324Z,6.55
2023-04-04T09:43:34.378Z,7.85
2023-04-04T09:46:06.977Z,3.83
2023-04-04T09:48:37.193Z,3.97
2023-04-04T09:51:08.315Z,6.35
2023-04-04T09:53:38.184Z,4.05
2023-04-04T09:56:10.181Z,6.00
2023-04-04T09:58:49.332Z,7.32
2023-04-04T10:01:28.699Z,4.50
2023-04-04T10:03:59.360Z,3.70
2023-04-04T10:06:29.232Z,3.30
2023-04-04T10:08:59.518Z,4.60
2023-04-04T10:11:34.605Z,5.20
2023-04-04T10:14:04.825Z,4.55
2023-04-04T10:16:38.278Z,3.65
2023-04-04T10:19:08.797Z,6.13
2023-04-04T10:21:38.542Z,5.38
2023-04-04T10:24:10.204Z,3.20
2023-04-04T10:26:41.705Z,7.57
2023-04-04T10:29:11.252Z,3.92
2023-04-04T10:31:45.348Z,5.55
2023-04-04T10:34:21.843Z,7.80
2023-04-04T10:36:53.283Z,5.80
2023-04-04T10:39:27.354Z,3.25
2023-04-04T10:41:59.891Z,7.72
2023-04-04T10:44:33.825Z,4.35
2023-04-04T10:47:14.695Z,5.47
2023-04-04T10:49:46.345Z,5.80
2023-04-04T10:52:17.776Z,5.30
2023-04-04T10:54:47.939Z,6.95
2023-04-04T10:57:19.916Z,3.38
2023-04-04T10:59:58.959Z,4.63
2023-04-04T11:02:50.009Z,5.97
2023-04-04T11:05:24.154Z,6.82
2023-04-04T11:10:33.858Z,2.85
2023-04-04T11:13:13.674Z,4.82
2023-04-04T11:18:30.722Z,4.55
2023-04-04T11:21:05.539Z,5.15
2023-04-04T11:24:17.133Z,4.32
2023-04-04T11:26:47.257Z,2.03
2023-04-04T11:29:44.917Z,2.75
2023-04-04T11:32:31.349Z,4.32
2023-04-04T11:35:00.943Z,3.20
2023-04-04T11:37:34.555Z,3.20
2023-04-04T11:40:12.953Z,4.60
2023-04-04T11:42:42.891Z,3.30
2023-04-04T11:45:21.018Z,7.03
2023-04-04T11:47:51.413Z,5.05
2023-04-04T11:50:21.902Z,4.82
2023-04-04T11:52:54.939Z,5.05
2023-04-04T11:55:26.684Z,1.40
2023-04-04T11:57:58.254Z,8.95
2023-04-04T12:00:35.057Z,6.03
2023-04-04T12:03:06.955Z,3.75
2023-04-04T12:05:37.073Z,2.08
2023-04-04T12:08:08.357Z,5.25
2023-04-04T12:10:38.498Z,2.75
2023-04-04T12:15:39.860Z,2.33
2023-04-04T12:18:09.904Z,3.03
2023-04-04T12:20:42.972Z,2.17
2023-04-04T12:23:14.873Z,9.68
2023-04-04T12:25:45.186Z,7.68
2023-04-04T12:28:14.956Z,2.22
2023-04-04T12:30:46.392Z,3.40
2023-04-04T12:33:15.659Z,2.35
2023-04-04T12:35:53.860Z,4.53
2023-04-04T12:38:23.583Z,3.03
2023-04-04T12:40:53.966Z,5.57
2023-04-04T12:43:23.192Z,3.35
2023-04-04T12:45:58.699Z,2.38
2023-04-04T12:48:30.029Z,5.28
2023-04-04T12:51:00.881Z,4.65
2023-04-04T12:53:33.084Z,5.75
2023-04-04T12:56:05.079Z,4.03
2023-04-04T12:58:37.470Z,3.22
2023-04-04T13:01:09.660Z,5.65
2023-04-04T13:03:39.989Z,4.18
2023-04-04T13:06:14.535Z,2.97
2023-04-04T13:08:54.039Z,3.17
2023-04-04T13:11:24.142Z,2.88
2023-04-04T13:16:36.040Z,3.80
2023-04-04T13:19:06.156Z,3.08
2023-04-04T13:21:36.497Z,2.55
2023-04-04T13:24:05.989Z,5.68
2023-04-04T13:29:04.590Z,4.03
2023-04-04T13:31:35.539Z,5.55
2023-04-04T13:34:04.768Z,2.80
2023-04-04T13:36:34.233Z,5.53
2023-04-04T13:39:03.412Z,2.67
2023-04-04T13:41:32.757Z,5.15
2023-04-04T13:44:01.975Z,2.30
2023-04-04T13:46:35.453Z,3.78
2023-04-04T13:49:04.857Z,2.38
2023-04-04T13:51:34.336Z,3.17
2023-04-04T13:54:04.793Z,2.60
2023-04-04T13:56:35.809Z,8.57
2023-04-04T13:59:05.572Z,6.10
2023-04-04T14:01:36.774Z,4.70
2023-04-04T14:04:16.608Z,3.30
2023-04-04T14:06:52.986Z,5.93
2023-04-04T14:09:24.549Z,5.30
2023-04-04T14:11:54.609Z,4.60
2023-04-04T14:14:23.948Z,2.15
2023-04-04T14:16:54.761Z,4.50
2023-04-04T14:19:25.437Z,5.82
2023-04-04T14:21:55.484Z,3.95
2023-04-04T14:24:25.052Z,2.45
2023-04-04T14:26:54.614Z,5.93
2023-04-04T14:29:24.172Z,4.00
2023-04-04T14:31:56.264Z,3.55
2023-04-04T14:34:27.053Z,2.85
2023-04-04T14:36:56.949Z,6.35
2023-04-04T14:39:26.729Z,3.15
2023-04-04T14:41:56.367Z,5.25
2023-04-04T14:44:26.175Z,3.60
2023-04-04T14:46:57.167Z,8.93
2023-04-04T14:49:26.498Z,4.53
2023-04-04T14:51:55.911Z,5.00
2023-04-04T14:54:25.109Z,4.88
2023-04-04T14:56:54.460Z,2.60
2023-04-04T14:59:23.785Z,2.80
2023-04-04T15:01:53.275Z,2.70
2023-04-04T15:04:23.888Z,3.85
2023-04-04T15:06:53.659Z,1.85
2023-04-04T15:09:23.304Z,2.83
2023-04-04T15:11:52.682Z,3.33
2023-04-04T15:14:21.837Z,5.68
2023-04-04T15:19:20.603Z,5.03
2023-04-04T15:21:51.410Z,5.10
2023-04-04T15:24:20.596Z,5.35
2023-04-04T15:29:20.385Z,3.33
2023-04-04T15:31:50.544Z,5.53
2023-04-04T15:34:19.778Z,4.78
2023-04-04T15:39:21.590Z,4.70
2023-04-04T15:41:51.040Z,2.53
2023-04-04T15:49:18.478Z,4.72
2023-04-04T15:54:18.494Z,2.63
2023-04-04T15:56:48.151Z,8.45
2023-04-04T16:01:47.043Z,2.38
2023-04-04T16:04:16.149Z,3.72
2023-04-04T16:09:14.611Z,2.95
2023-04-04T16:11:45.327Z,3.67
2023-04-04T16:14:14.552Z,6.72
2023-04-04T16:19:14.277Z,3.38
2023-04-04T16:21:44.032Z,5.20
2023-04-04T16:26:47.494Z,6.60
2023-04-04T16:29:18.574Z,4.15
2023-04-04T16:31:48.552Z,2.05
2023-04-04T16:34:19.300Z,3.80
2023-04-04T16:36:48.809Z,10.52
2023-04-04T16:39:19.361Z,3.25
2023-04-04T16:41:50.168Z,3.60
2023-04-04T16:44:19.580Z,4.10
2023-04-04T16:46:48.940Z,3.42
2023-04-04T16:49:18.187Z,4.80
2023-04-04T16:51:47.533Z,4.40
2023-04-04T16:54:16.714Z,6.18
2023-04-04T16:56:46.118Z,3.45
2023-04-04T16:59:17.478Z,11.57
2023-04-04T17:01:49.177Z,1.92
2023-04-04T17:04:18.485Z,7.38
2023-04-04T17:06:48.887Z,3.25
2023-04-04T17:09:18.285Z,4.80
2023-04-04T17:14:18.359Z,6.10
2023-04-04T17:16:48.136Z,4.13
2023-04-04T17:19:17.570Z,7.82
2023-04-04T17:21:47.676Z,8.68
2023-04-04T17:26:48.103Z,4.40
2023-04-04T17:29:20.729Z,4.88
2023-04-04T17:31:50.392Z,6.25
2023-04-04T17:34:20.169Z,6.07
2023-04-04T17:39:18.865Z,4.15
2023-04-04T17:41:48.806Z,8.48
2023-04-04T17:44:20.744Z,5.38
2023-04-04T17:46:50.679Z,5.97
2023-04-04T17:49:20.657Z,6.82
2023-04-04T17:51:51.139Z,7.72
2023-04-04T17:54:20.837Z,6.90
2023-04-04T17:56:50.569Z,7.53
2023-04-04T17:59:21.235Z,6.38
2023-04-04T18:01:52.115Z,5.05
2023-04-04T18:04:22.328Z,6.93
2023-04-04T18:06:52.430Z,5.55
2023-04-04T18:09:24.084Z,7.35
2023-04-04T18:11:53.850Z,5.90
2023-04-04T18:14:24.906Z,5.57
2023-04-04T18:16:54.697Z,5.32
2023-04-04T18:19:23.796Z,6.78
2023-04-04T18:21:59.654Z,6.57
2023-04-04T18:24:29.282Z,8.93
2023-04-04T18:26:58.865Z,12.07
2023-04-04T18:29:30.976Z,6.68
2023-04-04T18:32:02.790Z,6.00
2023-04-04T18:34:32.098Z,6.13
2023-04-04T18:37:01.904Z,11.15
2023-04-04T18:39:31.980Z,9.02
2023-04-04T18:42:03.155Z,9.35
2023-04-04T18:44:34.458Z,8.60
2023-04-04T18:47:05.310Z,9.60
2023-04-04T18:49:34.957Z,10.77
2023-04-04T18:52:04.317Z,7.53
2023-04-04T18:54:33.524Z,7.55
2023-04-04T18:57:03.271Z,13.10
2023-04-04T18:59:34.105Z,14.02
2023-04-04T19:02:05.869Z,8.23
2023-04-04T19:04:40.788Z,15.85
2023-04-04T19:07:18.361Z,7.72
2023-04-04T19:09:49.878Z,10.02
2023-04-04T19:12:19.456Z,6.68
2023-04-04T19:14:50.089Z,7.45
2023-04-04T19:17:19.817Z,10.48
2023-04-04T19:19:49.078Z,11.18
2023-04-04T19:22:18.775Z,16.58
2023-04-04T19:24:48.045Z,15.05
2023-04-04T19:27:17.553Z,21.60
2023-04-04T19:29:46.727Z,25.42
2023-04-04T19:32:19.850Z,12.65
2023-04-04T19:34:50.719Z,13.10
2023-04-04T19:37:20.339Z,12.10
2023-04-04T19:39:50.176Z,16.20
2023-04-04T19:42:26.653Z,10.90
2023-04-04T19:44:57.156Z,11.77
2023-04-04T19:47:28.184Z,13.27
2023-04-04T19:49:58.411Z,13.25
2023-04-04T19:52:27.894Z,12.02
2023-04-04T19:54:57.085Z,11.07
2023-04-04T19:57:27.445Z,12.02
2023-04-04T20:00:05.025Z,13.15
2023-04-04T20:02:52.947Z,14.73
2023-04-04T20:05:54.744Z,10.20
2023-04-04T20:08:24.244Z,6.05
2023-04-04T20:10:58.167Z,10.00
2023-04-04T20:13:27.932Z,8.93
2023-04-04T20:16:03.936Z,13.27
2023-04-04T20:18:36.850Z,13.32
2023-04-04T20:21:10.461Z,9.50
2023-04-04T20:23:48.306Z,11.00
2023-04-04T20:26:44.216Z,10.85
2023-04-04T20:29:17.439Z,11.45
2023-04-04T20:31:49.156Z,12.65
2023-04-04T20:34:42.700Z,13.90
2023-04-04T20:37:20.055Z,19.30
2023-04-04T20:39:55.581Z,17.92
2023-04-04T20:42:40.432Z,12.52
2023-04-04T20:45:47.233Z,17.75
2023-04-04T20:48:36.505Z,10.05
2023-04-04T20:51:24.017Z,16.92
2023-04-04T20:53:56.539Z,13.65
2023-04-04T20:56:55.550Z,18.77
2023-04-04T20:59:38.389Z,13.65
2023-04-04T21:02:19.985Z,15.40
2023-04-04T21:04:51.868Z,13.15
2023-04-04T21:07:42.514Z,15.80
2023-04-04T21:10:23.995Z,18.95
2023-04-04T21:12:53.920Z,16.92
2023-04-04T21:15:28.648Z,18.17
2023-04-04T21:18:01.806Z,18.48
2023-04-04T21:21:16.712Z,18.88
2023-04-04T21:23:52.748Z,17.90
2023-04-04T21:26:33.931Z,12.88
2023-04-04T21:29:06.223Z,15.63
2023-04-04T21:31:40.681Z,18.52
2023-04-04T21:34:12.807Z,17.83
2023-04-04T21:36:42.933Z,17.13
2023-04-04T21:39:15.712Z,21.50
2023-04-04T21:41:46.020Z,12.27
2023-04-04T21:44:15.652Z,16.40
2023-04-04T21:46:44.868Z,15.10
2023-04-04T21:49:16.647Z,15.48
2023-04-04T21:51:45.985Z,10.75
2023-04-04T21:54:16.796Z,19.58
2023-04-04T21:56:47.456Z,21.27
2023-04-04T21:59:17.014Z,20.30
2023-04-04T22:01:46.153Z,18.30
2023-04-04T22:04:16.086Z,20.52
2023-04-04T22:06:45.354Z,20.75
2023-04-04T22:09:16.563Z,15.50
2023-04-04T22:11:45.775Z,18.77
2023-04-04T22:14:17.818Z,14.35
2023-04-04T22:16:47.525Z,17.63
2023-04-04T22:19:16.953Z,15.75
2023-04-04T22:21:48.422Z,13.13
2023-04-04T22:24:21.358Z,13.50
2023-04-04T22:26:50.573Z,15.63
2023-04-04T22:29:20.022Z,16.52
2023-04-04T22:31:49.232Z,15.13
2023-04-04T22:34:18.731Z,15.43
2023-04-04T22:36:48.065Z,13.02
2023-04-04T22:39:20.706Z,8.52
2023-04-04T22:41:50.046Z,16.13
2023-04-04T22:44:19.424Z,16.95
2023-04-04T22:46:48.565Z,12.40
2023-04-04T22:49:17.918Z,17.33
2023-04-04T22:51:47.873Z,10.98
2023-04-04T22:54:19.075Z,18.80
2023-04-04T22:56:48.165Z,13.77
2023-04-04T22:59:17.558Z,16.63
2023-04-04T23:01:46.875Z,12.73
2023-04-04T23:04:16.737Z,9.93
2023-04-04T23:06:46.625Z,16.20
2023-04-04T23:09:16.309Z,12.80
2023-04-04T23:11:46.992Z,13.25
2023-04-04T23:14:19.534Z,13.38
2023-04-04T23:16:48.972Z,15.10
2023-04-04T23:19:18.420Z,14.45
2023-04-04T23:21:47.684Z,13.95
2023-04-04T23:24:17.132Z,13.80
2023-04-04T23:26:47.747Z,11.23
2023-04-04T23:29:17.374Z,14.13
2023-04-04T23:31:46.775Z,12.60
2023-04-04T23:34:16.133Z,13.77
2023-04-04T23:36:45.378Z,11.98
2023-04-04T23:39:15.916Z,10.50
2023-04-04T23:41:46.843Z,8.07
2023-04-04T23:44:17.606Z,11.60
2023-04-04T23:46:47.557Z,10.55
2023-04-04T23:49:17.931Z,11.70
2023-04-04T23:54:19.024Z,8.15
2023-04-04T23:56:49.537Z,10.95
2023-04-04T23:59:18.962Z,10.98
